sensor_id;sensor_type;location;lat;lon;timestamp;temperature;humidity
34542;DHT22;20784;51.332;12.410;2023-04-12T00:00:25;6.60;99.90
34542;DHT22;20784;51.332;12.410;2023-04-12T00:02:51;6.60;99.90
34542;DHT22;20784;51.332;12.410;2023-04-12T00:05:20;6.60;99.90
34542;DHT22;20784;51.332;12.410;2023-04-12T00:07:47;6.60;99.90
34542;DHT22;20784;51.332;12.410;2023-04-12T00:10:13;6.60;99.90
34542;DHT22;20784;51.332;12.410;2023-04-12T00:12:39;6.70;99.90
34542;DHT22;20784;51.332;12.410;2023-04-12T00:15:06;6.60;99.90
34542;DHT22;20784;51.332;12.410;2023-04-12T00:17:31;6.40;99.90
34542;DHT22;20784;51.332;12.410;2023-04-12T00:19:57;6.30;99.90
34542;DHT22;20784;51.332;12.410;2023-04-12T00:22:24;6.30;99.90
34542;DHT22;20784;51.332;12.410;2023-04-12T00:24:50;6.30;99.90
34542;DHT22;20784;51.332;12.410;2023-04-12T00:27:16;6.30;99.90
34542;DHT22;20784;51.332;12.410;2023-04-12T00:29:42;6.30;99.90
34542;DHT22;20784;51.332;12.410;2023-04-12T00:32:08;6.10;99.90
34542;DHT22;20784;51.332;12.410;2023-04-12T00:34:36;6.10;99.90
34542;DHT22;20784;51.332;12.410;2023-04-12T00:37:02;6.10;99.90
34542;DHT22;20784;51.332;12.410;2023-04-12T00:39:27;5.90;99.90
34542;DHT22;20784;51.332;12.410;2023-04-12T00:41:53;5.90;99.90
34542;DHT22;20784;51.332;12.410;2023-04-12T00:44:21;5.90;99.90
34542;DHT22;20784;51.332;12.410;2023-04-12T00:46:47;5.90;99.90
34542;DHT22;20784;51.332;12.410;2023-04-12T00:49:13;6.00;99.90
34542;DHT22;20784;51.332;12.410;2023-04-12T00:51:39;5.90;99.90
34542;DHT22;20784;51.332;12.410;2023-04-12T00:54:05;5.90;99.90
34542;DHT22;20784;51.332;12.410;2023-04-12T00:56:31;5.90;99.90
34542;DHT22;20784;51.332;12.410;2023-04-12T00:58:58;5.80;99.90
34542;DHT22;20784;51.332;12.410;2023-04-12T01:01:23;5.80;99.90
34542;DHT22;20784;51.332;12.410;2023-04-12T01:03:50;5.80;99.90
34542;DHT22;20784;51.332;12.410;2023-04-12T01:09:25;5.70;99.90
34542;DHT22;20784;51.332;12.410;2023-04-12T01:14:59;5.70;99.90
34542;DHT22;20784;51.332;12.410;2023-04-12T01:17:34;5.70;99.90
34542;DHT22;20784;51.332;12.410;2023-04-12T01:20:17;5.70;99.90
34542;DHT22;20784;51.332;12.410;2023-04-12T01:23:18;5.70;99.90
34542;DHT22;20784;51.332;12.410;2023-04-12T01:26:08;5.70;99.90
34542;DHT22;20784;51.332;12.410;2023-04-12T01:28:37;5.70;99.90
34542;DHT22;20784;51.332;12.410;2023-04-12T01:31:03;5.70;99.90
34542;DHT22;20784;51.332;12.410;2023-04-12T01:33:32;5.80;99.90
34542;DHT22;20784;51.332;12.410;2023-04-12T01:35:59;5.80;99.90
34542;DHT22;20784;51.332;12.410;2023-04-12T01:38:27;5.70;99.90
34542;DHT22;20784;51.332;12.410;2023-04-12T01:40:54;5.60;99.90
34542;DHT22;20784;51.332;12.410;2023-04-12T01:43:20;5.70;99.90
34542;DHT22;20784;51.332;12.410;2023-04-12T01:45:45;5.80;99.90
34542;DHT22;20784;51.332;12.410;2023-04-12T01:48:16;5.80;99.90
34542;DHT22;20784;51.332;12.410;2023-04-12T01:51:09;5.90;99.90
34542;DHT22;20784;51.332;12.410;2023-04-12T01:53:53;5.90;99.90
34542;DHT22;20784;51.332;12.410;2023-04-12T01:56:22;5.90;99.90
34542;DHT22;20784;51.332;12.410;2023-04-12T01:58:50;5.90;99.90
34542;DHT22;20784;51.332;12.410;2023-04-12T02:01:18;5.90;99.90
34542;DHT22;20784;51.332;12.410;2023-04-12T02:03:44;6.00;99.90
34542;DHT22;20784;51.332;12.410;2023-04-12T02:06:11;6.00;99.90
34542;DHT22;20784;51.332;12.410;2023-04-12T02:08:36;6.00;99.90
34542;DHT22;20784;51.332;12.410;2023-04-12T02:11:09;6.00;99.90
34542;DHT22;20784;51.332;12.410;2023-04-12T02:13:35;6.00;99.90
34542;DHT22;20784;51.332;12.410;2023-04-12T02:16:01;6.00;99.90
34542;DHT22;20784;51.332;12.410;2023-04-12T02:18:27;6.00;99.90
34542;DHT22;20784;51.332;12.410;2023-04-12T02:20:53;6.10;99.90
34542;DHT22;20784;51.332;12.410;2023-04-12T02:23:19;6.10;99.90
34542;DHT22;20784;51.332;12.410;2023-04-12T02:25:44;6.00;99.90
34542;DHT22;20784;51.332;12.410;2023-04-12T02:28:11;5.90;99.90
34542;DHT22;20784;51.332;12.410;2023-04-12T02:30:37;5.80;99.90
34542;DHT22;20784;51.332;12.410;2023-04-12T02:33:02;5.80;99.90
34542;DHT22;20784;51.332;12.410;2023-04-12T02:35:30;5.80;99.90
34542;DHT22;20784;51.332;12.410;2023-04-12T02:37:56;5.80;99.90
34542;DHT22;20784;51.332;12.410;2023-04-12T02:40:22;5.80;99.90
34542;DHT22;20784;51.332;12.410;2023-04-12T02:42:48;5.60;99.90
34542;DHT22;20784;51.332;12.410;2023-04-12T02:45:13;5.60;99.90
34542;DHT22;20784;51.332;12.410;2023-04-12T02:47:42;5.60;99.90
34542;DHT22;20784;51.332;12.410;2023-04-12T02:50:07;5.60;99.90
34542;DHT22;20784;51.332;12.410;2023-04-12T02:52:33;5.50;99.90
34542;DHT22;20784;51.332;12.410;2023-04-12T02:54:59;5.40;99.90
34542;DHT22;20784;51.332;12.410;2023-04-12T02:57:24;5.30;99.90
34542;DHT22;20784;51.332;12.410;2023-04-12T02:59:50;5.40;99.90
34542;DHT22;20784;51.332;12.410;2023-04-12T03:02:20;5.30;99.90
34542;DHT22;20784;51.332;12.410;2023-04-12T03:04:45;5.20;99.90
34542;DHT22;20784;51.332;12.410;2023-04-12T03:07:16;5.10;99.90
34542;DHT22;20784;51.332;12.410;2023-04-12T03:09:42;5.00;99.90
34542;DHT22;20784;51.332;12.410;2023-04-12T03:12:09;5.10;99.90
34542;DHT22;20784;51.332;12.410;2023-04-12T03:14:41;5.00;99.90
34542;DHT22;20784;51.332;12.410;2023-04-12T03:17:07;5.00;99.90
34542;DHT22;20784;51.332;12.410;2023-04-12T03:19:36;5.00;99.90
34542;DHT22;20784;51.332;12.410;2023-04-12T03:22:04;5.00;99.90
34542;DHT22;20784;51.332;12.410;2023-04-12T03:24:35;5.10;99.90
34542;DHT22;20784;51.332;12.410;2023-04-12T03:27:02;4.90;99.90
34542;DHT22;20784;51.332;12.410;2023-04-12T03:29:31;4.80;99.90
34542;DHT22;20784;51.332;12.410;2023-04-12T03:31:57;4.80;99.90
34542;DHT22;20784;51.332;12.410;2023-04-12T03:34:24;4.90;99.90
34542;DHT22;20784;51.332;12.410;2023-04-12T03:36:53;4.80;99.90
34542;DHT22;20784;51.332;12.410;2023-04-12T03:39:19;4.90;99.90
34542;DHT22;20784;51.332;12.410;2023-04-12T03:41:45;4.90;99.90
34542;DHT22;20784;51.332;12.410;2023-04-12T03:44:11;4.90;99.90
34542;DHT22;20784;51.332;12.410;2023-04-12T03:46:37;5.00;99.90
34542;DHT22;20784;51.332;12.410;2023-04-12T03:49:02;4.90;99.90
34542;DHT22;20784;51.332;12.410;2023-04-12T03:51:28;4.80;99.90
34542;DHT22;20784;51.332;12.410;2023-04-12T03:53:55;4.80;99.90
34542;DHT22;20784;51.332;12.410;2023-04-12T03:56:21;4.80;99.90
34542;DHT22;20784;51.332;12.410;2023-04-12T03:58:47;4.60;99.90
34542;DHT22;20784;51.332;12.410;2023-04-12T04:01:12;4.60;99.90
34542;DHT22;20784;51.332;12.410;2023-04-12T04:03:39;4.80;99.90
34542;DHT22;20784;51.332;12.410;2023-04-12T04:06:06;4.70;99.90
34542;DHT22;20784;51.332;12.410;2023-04-12T04:08:32;4.80;99.90
34542;DHT22;20784;51.332;12.410;2023-04-12T04:10:59;4.90;99.90
34542;DHT22;20784;51.332;12.410;2023-04-12T04:13:25;4.90;99.90
34542;DHT22;20784;51.332;12.410;2023-04-12T04:15:58;4.90;99.90
34542;DHT22;20784;51.332;12.410;2023-04-12T04:18:24;4.90;99.90
34542;DHT22;20784;51.332;12.410;2023-04-12T04:20:49;5.00;99.90
34542;DHT22;20784;51.332;12.410;2023-04-12T04:23:15;5.00;99.90
34542;DHT22;20784;51.332;12.410;2023-04-12T04:25:42;5.00;99.90
34542;DHT22;20784;51.332;12.410;2023-04-12T04:28:08;5.10;99.90
34542;DHT22;20784;51.332;12.410;2023-04-12T04:30:34;5.10;99.90
34542;DHT22;20784;51.332;12.410;2023-04-12T04:33:06;5.10;99.90
34542;DHT22;20784;51.332;12.410;2023-04-12T04:35:32;5.20;99.90
34542;DHT22;20784;51.332;12.410;2023-04-12T04:38:01;5.30;99.90
34542;DHT22;20784;51.332;12.410;2023-04-12T04:40:27;5.40;99.90
34542;DHT22;20784;51.332;12.410;2023-04-12T04:42:53;5.40;99.90
34542;DHT22;20784;51.332;12.410;2023-04-12T04:45:23;5.40;99.90
34542;DHT22;20784;51.332;12.410;2023-04-12T04:47:56;5.40;99.90
34542;DHT22;20784;51.332;12.410;2023-04-12T04:50:22;5.50;99.90
34542;DHT22;20784;51.332;12.410;2023-04-12T04:52:49;5.40;99.90
34542;DHT22;20784;51.332;12.410;2023-04-12T04:55:20;5.40;99.90
34542;DHT22;20784;51.332;12.410;2023-04-12T04:57:46;5.50;99.90
34542;DHT22;20784;51.332;12.410;2023-04-12T05:00:12;5.50;99.90
34542;DHT22;20784;51.332;12.410;2023-04-12T05:02:39;5.60;99.90
34542;DHT22;20784;51.332;12.410;2023-04-12T05:05:11;5.60;99.90
34542;DHT22;20784;51.332;12.410;2023-04-12T05:07:38;5.60;99.90
34542;DHT22;20784;51.332;12.410;2023-04-12T05:10:04;5.60;99.90
34542;DHT22;20784;51.332;12.410;2023-04-12T05:12:30;5.60;99.90
34542;DHT22;20784;51.332;12.410;2023-04-12T05:14:56;5.50;99.90
34542;DHT22;20784;51.332;12.410;2023-04-12T05:17:22;5.50;99.90
34542;DHT22;20784;51.332;12.410;2023-04-12T05:19:47;5.50;99.90
34542;DHT22;20784;51.332;12.410;2023-04-12T05:22:13;5.50;99.90
34542;DHT22;20784;51.332;12.410;2023-04-12T05:24:41;5.60;99.90
34542;DHT22;20784;51.332;12.410;2023-04-12T05:27:07;5.50;99.90
34542;DHT22;20784;51.332;12.410;2023-04-12T05:29:41;5.60;99.90
34542;DHT22;20784;51.332;12.410;2023-04-12T05:32:07;5.60;99.90
34542;DHT22;20784;51.332;12.410;2023-04-12T05:34:36;5.50;99.90
34542;DHT22;20784;51.332;12.410;2023-04-12T05:37:02;5.60;99.90
34542;DHT22;20784;51.332;12.410;2023-04-12T05:39:32;5.60;99.90
34542;DHT22;20784;51.332;12.410;2023-04-12T05:41:58;5.60;99.90
34542;DHT22;20784;51.332;12.410;2023-04-12T05:44:23;5.50;99.90
34542;DHT22;20784;51.332;12.410;2023-04-12T05:46:49;5.60;99.90
34542;DHT22;20784;51.332;12.410;2023-04-12T05:49:15;5.80;99.90
34542;DHT22;20784;51.332;12.410;2023-04-12T05:51:41;5.80;99.90
34542;DHT22;20784;51.332;12.410;2023-04-12T05:54:06;5.90;99.90
34542;DHT22;20784;51.332;12.410;2023-04-12T05:56:33;5.90;99.90
34542;DHT22;20784;51.332;12.410;2023-04-12T05:58:59;6.00;99.90
34542;DHT22;20784;51.332;12.410;2023-04-12T06:01:29;6.10;99.90
34542;DHT22;20784;51.332;12.410;2023-04-12T06:04:00;6.20;99.90
34542;DHT22;20784;51.332;12.410;2023-04-12T06:06:33;6.30;99.90
34542;DHT22;20784;51.332;12.410;2023-04-12T06:08:59;6.40;99.90
34542;DHT22;20784;51.332;12.410;2023-04-12T06:11:34;6.50;99.90
34542;DHT22;20784;51.332;12.410;2023-04-12T06:14:03;6.50;99.90
34542;DHT22;20784;51.332;12.410;2023-04-12T06:16:29;6.60;99.90
34542;DHT22;20784;51.332;12.410;2023-04-12T06:19:04;6.70;99.90
34542;DHT22;20784;51.332;12.410;2023-04-12T06:21:35;6.80;99.90
34542;DHT22;20784;51.332;12.410;2023-04-12T06:24:10;7.00;99.90
34542;DHT22;20784;51.332;12.410;2023-04-12T06:26:36;7.00;99.90
34542;DHT22;20784;51.332;12.410;2023-04-12T06:29:12;7.10;99.90
34542;DHT22;20784;51.332;12.410;2023-04-12T06:31:38;7.20;99.90
34542;DHT22;20784;51.332;12.410;2023-04-12T06:34:13;7.30;99.90
34542;DHT22;20784;51.332;12.410;2023-04-12T06:36:40;7.40;99.90
34542;DHT22;20784;51.332;12.410;2023-04-12T06:39:13;7.60;99.90
34542;DHT22;20784;51.332;12.410;2023-04-12T06:41:42;7.60;99.90
34542;DHT22;20784;51.332;12.410;2023-04-12T06:44:12;7.60;99.90
34542;DHT22;20784;51.332;12.410;2023-04-12T06:46:45;7.70;99.90
34542;DHT22;20784;51.332;12.410;2023-04-12T06:49:11;7.70;99.90
34542;DHT22;20784;51.332;12.410;2023-04-12T06:51:37;7.90;99.90
34542;DHT22;20784;51.332;12.410;2023-04-12T06:54:02;8.00;99.90
34542;DHT22;20784;51.332;12.410;2023-04-12T06:56:28;8.10;99.90
34542;DHT22;20784;51.332;12.410;2023-04-12T06:58:56;8.30;99.90
34542;DHT22;20784;51.332;12.410;2023-04-12T07:01:23;8.30;99.90
34542;DHT22;20784;51.332;12.410;2023-04-12T07:03:56;8.50;99.90
34542;DHT22;20784;51.332;12.410;2023-04-12T07:06:22;8.60;99.90
34542;DHT22;20784;51.332;12.410;2023-04-12T07:08:47;8.60;99.90
34542;DHT22;20784;51.332;12.410;2023-04-12T07:11:13;8.80;99.90
34542;DHT22;20784;51.332;12.410;2023-04-12T07:13:39;9.00;99.90
34542;DHT22;20784;51.332;12.410;2023-04-12T07:16:05;9.10;99.90
34542;DHT22;20784;51.332;12.410;2023-04-12T07:18:31;9.30;99.90
34542;DHT22;20784;51.332;12.410;2023-04-12T07:20:59;9.50;99.90
34542;DHT22;20784;51.332;12.410;2023-04-12T07:23:28;9.50;99.90
34542;DHT22;20784;51.332;12.410;2023-04-12T07:25:58;9.50;99.90
34542;DHT22;20784;51.332;12.410;2023-04-12T07:28:25;9.50;99.90
34542;DHT22;20784;51.332;12.410;2023-04-12T07:30:50;9.70;99.90
34542;DHT22;20784;51.332;12.410;2023-04-12T07:33:16;9.80;99.90
34542;DHT22;20784;51.332;12.410;2023-04-12T07:35:42;9.80;99.90
34542;DHT22;20784;51.332;12.410;2023-04-12T07:38:10;10.00;99.90
34542;DHT22;20784;51.332;12.410;2023-04-12T07:40:35;10.20;99.90
34542;DHT22;20784;51.332;12.410;2023-04-12T07:43:01;10.40;99.90
34542;DHT22;20784;51.332;12.410;2023-04-12T07:45:30;10.60;99.90
34542;DHT22;20784;51.332;12.410;2023-04-12T07:47:56;11.00;99.90
34542;DHT22;20784;51.332;12.410;2023-04-12T07:50:22;11.10;99.90
34542;DHT22;20784;51.332;12.410;2023-04-12T07:52:47;11.20;99.90
34542;DHT22;20784;51.332;12.410;2023-04-12T07:55:13;11.40;99.90
34542;DHT22;20784;51.332;12.410;2023-04-12T07:57:48;11.50;99.90
34542;DHT22;20784;51.332;12.410;2023-04-12T08:00:14;11.90;99.90
34542;DHT22;20784;51.332;12.410;2023-04-12T08:02:41;12.10;99.90
34542;DHT22;20784;51.332;12.410;2023-04-12T08:05:07;12.40;99.90
34542;DHT22;20784;51.332;12.410;2023-04-12T08:07:33;12.50;99.90
34542;DHT22;20784;51.332;12.410;2023-04-12T08:09:59;12.50;99.90
34542;DHT22;20784;51.332;12.410;2023-04-12T08:12:24;12.50;99.90
34542;DHT22;20784;51.332;12.410;2023-04-12T08:14:50;12.60;99.90
34542;DHT22;20784;51.332;12.410;2023-04-12T08:17:16;12.80;99.90
34542;DHT22;20784;51.332;12.410;2023-04-12T08:19:42;13.20;99.90
34542;DHT22;20784;51.332;12.410;2023-04-12T08:22:07;13.60;99.90
34542;DHT22;20784;51.332;12.410;2023-04-12T08:24:33;13.50;99.90
34542;DHT22;20784;51.332;12.410;2023-04-12T08:26:59;13.50;99.90
34542;DHT22;20784;51.332;12.410;2023-04-12T08:29:26;13.40;99.90
34542;DHT22;20784;51.332;12.410;2023-04-12T08:31:55;13.60;99.90
34542;DHT22;20784;51.332;12.410;2023-04-12T08:34:24;14.00;99.90
34542;DHT22;20784;51.332;12.410;2023-04-12T08:36:50;13.90;99.90
34542;DHT22;20784;51.332;12.410;2023-04-12T08:39:16;13.80;99.90
34542;DHT22;20784;51.332;12.410;2023-04-12T08:41:42;13.80;99.90
34542;DHT22;20784;51.332;12.410;2023-04-12T08:44:10;13.90;99.90
34542;DHT22;20784;51.332;12.410;2023-04-12T08:46:36;14.30;99.90
34542;DHT22;20784;51.332;12.410;2023-04-12T08:49:02;14.40;99.90
34542;DHT22;20784;51.332;12.410;2023-04-12T08:51:31;14.50;99.90
34542;DHT22;20784;51.332;12.410;2023-04-12T08:53:58;14.70;99.90
34542;DHT22;20784;51.332;12.410;2023-04-12T08:56:27;15.00;99.90
34542;DHT22;20784;51.332;12.410;2023-04-12T08:58:59;15.30;99.90
34542;DHT22;20784;51.332;12.410;2023-04-12T09:01:25;15.20;99.90
34542;DHT22;20784;51.332;12.410;2023-04-12T09:03:51;15.00;99.90
34542;DHT22;20784;51.332;12.410;2023-04-12T09:06:17;14.80;99.90
34542;DHT22;20784;51.332;12.410;2023-04-12T09:08:55;14.80;99.90
34542;DHT22;20784;51.332;12.410;2023-04-12T09:11:26;15.10;99.90
34542;DHT22;20784;51.332;12.410;2023-04-12T09:13:55;14.90;99.90
34542;DHT22;20784;51.332;12.410;2023-04-12T09:18:59;15.60;99.90
34542;DHT22;20784;51.332;12.410;2023-04-12T09:21:27;16.00;99.90
34542;DHT22;20784;51.332;12.410;2023-04-12T09:24:04;15.80;99.90
34542;DHT22;20784;51.332;12.410;2023-04-12T09:26:30;15.40;99.90
34542;DHT22;20784;51.332;12.410;2023-04-12T09:28:56;15.20;99.90
34542;DHT22;20784;51.332;12.410;2023-04-12T09:31:22;15.40;99.90
34542;DHT22;20784;51.332;12.410;2023-04-12T09:33:49;15.10;99.90
34542;DHT22;20784;51.332;12.410;2023-04-12T09:36:18;15.00;99.90
34542;DHT22;20784;51.332;12.410;2023-04-12T09:38:59;15.20;99.90
34542;DHT22;20784;51.332;12.410;2023-04-12T09:41:29;15.10;99.90
34542;DHT22;20784;51.332;12.410;2023-04-12T09:43:59;15.10;99.90
34542;DHT22;20784;51.332;12.410;2023-04-12T09:46:25;15.30;99.90
34542;DHT22;20784;51.332;12.410;2023-04-12T09:48:59;15.70;99.90
34542;DHT22;20784;51.332;12.410;2023-04-12T09:51:32;15.90;99.90
34542;DHT22;20784;51.332;12.410;2023-04-12T09:54:05;16.00;99.90
34542;DHT22;20784;51.332;12.410;2023-04-12T09:56:33;15.90;99.90
34542;DHT22;20784;51.332;12.410;2023-04-12T09:59:08;15.70;99.90
34542;DHT22;20784;51.332;12.410;2023-04-12T10:01:38;15.70;99.90
34542;DHT22;20784;51.332;12.410;2023-04-12T10:04:10;15.90;99.90
34542;DHT22;20784;51.332;12.410;2023-04-12T10:06:42;16.00;99.90
34542;DHT22;20784;51.332;12.410;2023-04-12T10:09:11;16.10;99.90
34542;DHT22;20784;51.332;12.410;2023-04-12T10:11:46;16.10;99.90
34542;DHT22;20784;51.332;12.410;2023-04-12T10:14:13;16.00;99.90
34542;DHT22;20784;51.332;12.410;2023-04-12T10:16:43;16.00;99.90
34542;DHT22;20784;51.332;12.410;2023-04-12T10:19:12;16.00;99.90
34542;DHT22;20784;51.332;12.410;2023-04-12T10:21:38;16.10;99.90
34542;DHT22;20784;51.332;12.410;2023-04-12T10:24:04;15.80;99.90
34542;DHT22;20784;51.332;12.410;2023-04-12T10:26:31;15.80;99.90
34542;DHT22;20784;51.332;12.410;2023-04-12T10:29:36;15.70;99.90
34542;DHT22;20784;51.332;12.410;2023-04-12T10:32:23;15.50;99.90
34542;DHT22;20784;51.332;12.410;2023-04-12T10:34:54;15.10;99.90
34542;DHT22;20784;51.332;12.410;2023-04-12T10:37:56;15.10;99.90
34542;DHT22;20784;51.332;12.410;2023-04-12T10:40:29;15.20;99.90
34542;DHT22;20784;51.332;12.410;2023-04-12T10:43:26;15.30;99.90
34542;DHT22;20784;51.332;12.410;2023-04-12T10:45:55;14.90;99.90
34542;DHT22;20784;51.332;12.410;2023-04-12T10:48:33;14.70;99.90
34542;DHT22;20784;51.332;12.410;2023-04-12T10:51:21;14.60;99.90
34542;DHT22;20784;51.332;12.410;2023-04-12T10:56:45;14.60;99.90
34542;DHT22;20784;51.332;12.410;2023-04-12T10:59:14;14.60;99.90
34542;DHT22;20784;51.332;12.410;2023-04-12T11:01:41;14.50;99.90
34542;DHT22;20784;51.332;12.410;2023-04-12T11:04:27;14.30;99.90
34542;DHT22;20784;51.332;12.410;2023-04-12T11:06:53;14.20;99.90
34542;DHT22;20784;51.332;12.410;2023-04-12T11:09:24;14.20;99.90
34542;DHT22;20784;51.332;12.410;2023-04-12T11:12:10;14.20;99.90
34542;DHT22;20784;51.332;12.410;2023-04-12T11:14:49;14.30;99.90
34542;DHT22;20784;51.332;12.410;2023-04-12T11:19:41;14.10;99.90
34542;DHT22;20784;51.332;12.410;2023-04-12T11:22:09;14.10;99.90
34542;DHT22;20784;51.332;12.410;2023-04-12T11:24:54;14.10;99.90
34542;DHT22;20784;51.332;12.410;2023-04-12T11:27:22;14.20;99.90
34542;DHT22;20784;51.332;12.410;2023-04-12T11:29:52;14.10;99.90
34542;DHT22;20784;51.332;12.410;2023-04-12T11:32:27;14.10;99.90
34542;DHT22;20784;51.332;12.410;2023-04-12T11:34:56;14.10;99.90
34542;DHT22;20784;51.332;12.410;2023-04-12T11:37:23;14.20;99.90
34542;DHT22;20784;51.332;12.410;2023-04-12T11:39:56;14.30;99.90
34542;DHT22;20784;51.332;12.410;2023-04-12T11:42:32;14.30;99.90
34542;DHT22;20784;51.332;12.410;2023-04-12T11:44:58;14.30;99.90
34542;DHT22;20784;51.332;12.410;2023-04-12T11:47:24;14.40;99.90
34542;DHT22;20784;51.332;12.410;2023-04-12T11:49:55;14.30;99.90
34542;DHT22;20784;51.332;12.410;2023-04-12T11:52:29;14.50;99.90
34542;DHT22;20784;51.332;12.410;2023-04-12T11:54:57;14.50;99.90
34542;DHT22;20784;51.332;12.410;2023-04-12T11:57:23;14.40;99.90
34542;DHT22;20784;51.332;12.410;2023-04-12T11:59:49;14.20;99.90
34542;DHT22;20784;51.332;12.410;2023-04-12T12:02:33;14.20;99.90
34542;DHT22;20784;51.332;12.410;2023-04-12T12:05:07;14.10;99.90
34542;DHT22;20784;51.332;12.410;2023-04-12T12:07:36;13.90;99.90
34542;DHT22;20784;51.332;12.410;2023-04-12T12:10:09;13.80;99.90
34542;DHT22;20784;51.332;12.410;2023-04-12T12:12:37;13.70;99.90
34542;DHT22;20784;51.332;12.410;2023-04-12T12:15:04;13.60;99.90
34542;DHT22;20784;51.332;12.410;2023-04-12T12:17:37;13.40;99.90
34542;DHT22;20784;51.332;12.410;2023-04-12T12:20:06;13.40;99.90
34542;DHT22;20784;51.332;12.410;2023-04-12T12:22:46;13.30;99.90
34542;DHT22;20784;51.332;12.410;2023-04-12T12:25:12;13.30;99.90
34542;DHT22;20784;51.332;12.410;2023-04-12T12:27:38;13.20;99.90
34542;DHT22;20784;51.332;12.410;2023-04-12T12:30:08;13.10;99.90
34542;DHT22;20784;51.332;12.410;2023-04-12T12:32:38;13.00;99.90
34542;DHT22;20784;51.332;12.410;2023-04-12T12:35:09;12.80;99.90
34542;DHT22;20784;51.332;12.410;2023-04-12T12:37:35;12.80;99.90
34542;DHT22;20784;51.332;12.410;2023-04-12T12:42:54;12.60;99.90
34542;DHT22;20784;51.332;12.410;2023-04-12T12:45:22;12.60;1.00
34542;DHT22;20784;51.332;12.410;2023-04-12T12:47:53;12.50;99.90
34542;DHT22;20784;51.332;12.410;2023-04-12T12:50:21;12.30;1.00
34542;DHT22;20784;51.332;12.410;2023-04-12T12:52:50;12.10;1.00
34542;DHT22;20784;51.332;12.410;2023-04-12T12:55:19;12.00;1.00
34542;DHT22;20784;51.332;12.410;2023-04-12T12:57:47;12.00;1.00
34542;DHT22;20784;51.332;12.410;2023-04-12T13:00:14;12.00;1.00
34542;DHT22;20784;51.332;12.410;2023-04-12T13:02:44;11.90;1.00
34542;DHT22;20784;51.332;12.410;2023-04-12T13:05:10;11.70;1.00
34542;DHT22;20784;51.332;12.410;2023-04-12T13:07:36;11.70;1.00
34542;DHT22;20784;51.332;12.410;2023-04-12T13:10:03;11.70;1.00
34542;DHT22;20784;51.332;12.410;2023-04-12T13:12:29;11.80;6.50
34542;DHT22;20784;51.332;12.410;2023-04-12T13:15:00;11.90;1.00
34542;DHT22;20784;51.332;12.410;2023-04-12T13:17:30;11.70;23.80
34542;DHT22;20784;51.332;12.410;2023-04-12T13:19:58;11.60;3.90
34542;DHT22;20784;51.332;12.410;2023-04-12T13:22:24;11.50;20.60
34542;DHT22;20784;51.332;12.410;2023-04-12T13:24:53;11.40;27.00
34542;DHT22;20784;51.332;12.410;2023-04-12T13:27:23;11.40;36.00
34542;DHT22;20784;51.332;12.410;2023-04-12T13:29:48;11.20;41.60
34542;DHT22;20784;51.332;12.410;2023-04-12T13:32:14;11.20;84.40
34542;DHT22;20784;51.332;12.410;2023-04-12T13:34:41;11.10;89.90
34542;DHT22;20784;51.332;12.410;2023-04-12T13:37:07;11.10;96.80
34542;DHT22;20784;51.332;12.410;2023-04-12T13:39:32;11.10;99.90
34542;DHT22;20784;51.332;12.410;2023-04-12T13:41:59;11.10;99.90
34542;DHT22;20784;51.332;12.410;2023-04-12T13:44:26;11.10;99.90
34542;DHT22;20784;51.332;12.410;2023-04-12T13:46:54;11.10;99.90
34542;DHT22;20784;51.332;12.410;2023-04-12T13:49:21;11.10;99.90
34542;DHT22;20784;51.332;12.410;2023-04-12T13:51:47;11.00;99.90
34542;DHT22;20784;51.332;12.410;2023-04-12T13:54:13;10.80;99.90
34542;DHT22;20784;51.332;12.410;2023-04-12T13:56:40;10.80;99.90
34542;DHT22;20784;51.332;12.410;2023-04-12T13:59:08;10.80;99.90
34542;DHT22;20784;51.332;12.410;2023-04-12T14:01:37;10.70;99.90
34542;DHT22;20784;51.332;12.410;2023-04-12T14:04:06;10.70;99.90
34542;DHT22;20784;51.332;12.410;2023-04-12T14:06:37;10.60;99.90
34542;DHT22;20784;51.332;12.410;2023-04-12T14:09:03;10.60;99.90
34542;DHT22;20784;51.332;12.410;2023-04-12T14:11:30;10.70;99.90
34542;DHT22;20784;51.332;12.410;2023-04-12T14:14:12;10.70;99.90
34542;DHT22;20784;51.332;12.410;2023-04-12T14:16:43;10.60;99.90
34542;DHT22;20784;51.332;12.410;2023-04-12T14:19:09;10.50;99.90
34542;DHT22;20784;51.332;12.410;2023-04-12T14:21:35;10.60;99.90
34542;DHT22;20784;51.332;12.410;2023-04-12T14:24:00;10.70;99.90
34542;DHT22;20784;51.332;12.410;2023-04-12T14:26:26;10.60;99.90
34542;DHT22;20784;51.332;12.410;2023-04-12T14:28:52;10.70;99.90
34542;DHT22;20784;51.332;12.410;2023-04-12T14:31:21;10.70;99.90
34542;DHT22;20784;51.332;12.410;2023-04-12T14:33:48;10.70;99.90
34542;DHT22;20784;51.332;12.410;2023-04-12T14:36:14;10.70;99.90
34542;DHT22;20784;51.332;12.410;2023-04-12T14:38:40;10.70;99.90
34542;DHT22;20784;51.332;12.410;2023-04-12T14:41:06;10.70;99.90
34542;DHT22;20784;51.332;12.410;2023-04-12T14:43:36;10.70;99.90
34542;DHT22;20784;51.332;12.410;2023-04-12T14:46:02;10.70;99.90
34542;DHT22;20784;51.332;12.410;2023-04-12T14:48:27;10.80;99.90
34542;DHT22;20784;51.332;12.410;2023-04-12T14:50:53;10.90;99.90
34542;DHT22;20784;51.332;12.410;2023-04-12T14:53:24;10.70;99.90
34542;DHT22;20784;51.332;12.410;2023-04-12T14:55:50;10.70;99.90
34542;DHT22;20784;51.332;12.410;2023-04-12T14:58:16;10.70;99.90
34542;DHT22;20784;51.332;12.410;2023-04-12T15:00:42;10.70;99.90
34542;DHT22;20784;51.332;12.410;2023-04-12T15:03:07;10.60;99.90
34542;DHT22;20784;51.332;12.410;2023-04-12T15:05:34;10.70;99.90
34542;DHT22;20784;51.332;12.410;2023-04-12T15:08:00;10.60;99.90
34542;DHT22;20784;51.332;12.410;2023-04-12T15:10:26;10.60;99.90
34542;DHT22;20784;51.332;12.410;2023-04-12T15:12:52;10.60;99.90
34542;DHT22;20784;51.332;12.410;2023-04-12T15:15:21;10.60;99.90
34542;DHT22;20784;51.332;12.410;2023-04-12T15:17:47;10.70;99.90
34542;DHT22;20784;51.332;12.410;2023-04-12T15:20:13;10.70;99.90
34542;DHT22;20784;51.332;12.410;2023-04-12T15:22:42;10.80;99.90
34542;DHT22;20784;51.332;12.410;2023-04-12T15:25:08;10.90;99.90
34542;DHT22;20784;51.332;12.410;2023-04-12T15:27:37;10.90;99.90
34542;DHT22;20784;51.332;12.410;2023-04-12T15:30:04;10.90;99.90
34542;DHT22;20784;51.332;12.410;2023-04-12T15:32:33;10.80;99.90
34542;DHT22;20784;51.332;12.410;2023-04-12T15:35:02;10.80;99.90
34542;DHT22;20784;51.332;12.410;2023-04-12T15:37:31;10.70;99.90
34542;DHT22;20784;51.332;12.410;2023-04-12T15:40:00;10.70;99.90
34542;DHT22;20784;51.332;12.410;2023-04-12T15:42:26;10.70;99.90
34542;DHT22;20784;51.332;12.410;2023-04-12T15:44:52;10.80;99.90
34542;DHT22;20784;51.332;12.410;2023-04-12T15:47:17;10.80;99.90